sensor_id;sensor_type;location;lat;lon;timestamp;P1;durP1;ratioP1;P2;durP2;ratioP2
68763;SDS011;55754;52.038;5.566;2023-01-24T00:02:03;15.10;;;8.40;;
68763;SDS011;55754;52.038;5.566;2023-01-24T00:04:28;16.20;;;8.70;;
68763;SDS011;55754;52.038;5.566;2023-01-24T00:06:54;15.70;;;8.73;;
68763;SDS011;55754;52.038;5.566;2023-01-24T00:09:19;16.40;;;8.47;;
68763;SDS011;55754;52.038;5.566;2023-01-24T00:11:45;15.03;;;8.70;;
68763;SDS011;55754;52.038;5.566;2023-01-24T00:14:10;15.52;;;8.80;;
68763;SDS011;55754;52.038;5.566;2023-01-24T00:16:36;16.47;;;9.03;;
68763;SDS011;55754;52.038;5.566;2023-01-24T00:19:01;15.70;;;8.67;;
68763;SDS011;55754;52.038;5.566;2023-01-24T00:21:27;15.18;;;8.85;;
68763;SDS011;55754;52.038;5.566;2023-01-24T00:23:53;15.95;;;8.77;;
68763;SDS011;55754;52.038;5.566;2023-01-24T00:26:19;17.38;;;9.00;;
68763;SDS011;55754;52.038;5.566;2023-01-24T00:28:45;14.83;;;8.47;;
68763;SDS011;55754;52.038;5.566;2023-01-24T00:31:12;16.13;;;9.23;;
68763;SDS011;55754;52.038;5.566;2023-01-24T00:33:38;17.05;;;9.20;;
68763;SDS011;55754;52.038;5.566;2023-01-24T00:36:04;15.57;;;8.85;;
68763;SDS011;55754;52.038;5.566;2023-01-24T00:38:30;14.77;;;8.07;;
68763;SDS011;55754;52.038;5.566;2023-01-24T00:40:56;16.17;;;8.93;;
68763;SDS011;55754;52.038;5.566;2023-01-24T00:43:22;14.10;;;8.20;;
68763;SDS011;55754;52.038;5.566;2023-01-24T00:45:48;15.82;;;8.23;;
68763;SDS011;55754;52.038;5.566;2023-01-24T00:48:14;16.45;;;8.60;;
68763;SDS011;55754;52.038;5.566;2023-01-24T00:50:40;14.30;;;7.75;;
68763;SDS011;55754;52.038;5.566;2023-01-24T00:53:06;16.00;;;8.85;;
68763;SDS011;55754;52.038;5.566;2023-01-24T00:55:31;14.60;;;7.73;;
68763;SDS011;55754;52.038;5.566;2023-01-24T00:57:57;15.43;;;8.57;;
68763;SDS011;55754;52.038;5.566;2023-01-24T01:00:23;14.50;;;7.90;;
68763;SDS011;55754;52.038;5.566;2023-01-24T01:02:49;13.52;;;7.10;;
68763;SDS011;55754;52.038;5.566;2023-01-24T01:05:15;13.27;;;7.40;;
68763;SDS011;55754;52.038;5.566;2023-01-24T01:07:41;12.88;;;7.20;;
68763;SDS011;55754;52.038;5.566;2023-01-24T01:10:07;12.80;;;6.60;;
68763;SDS011;55754;52.038;5.566;2023-01-24T01:12:33;14.43;;;7.70;;
68763;SDS011;55754;52.038;5.566;2023-01-24T01:14:59;14.50;;;7.60;;
68763;SDS011;55754;52.038;5.566;2023-01-24T01:17:26;17.25;;;8.18;;
68763;SDS011;55754;52.038;5.566;2023-01-24T01:19:51;14.97;;;7.97;;
68763;SDS011;55754;52.038;5.566;2023-01-24T01:22:18;14.15;;;7.97;;
68763;SDS011;55754;52.038;5.566;2023-01-24T01:24:44;14.50;;;7.70;;
68763;SDS011;55754;52.038;5.566;2023-01-24T01:27:09;14.20;;;8.07;;
68763;SDS011;55754;52.038;5.566;2023-01-24T01:29:35;14.38;;;8.10;;
68763;SDS011;55754;52.038;5.566;2023-01-24T01:32:01;14.87;;;8.20;;
68763;SDS011;55754;52.038;5.566;2023-01-24T01:34:26;14.13;;;8.00;;
68763;SDS011;55754;52.038;5.566;2023-01-24T01:36:52;13.83;;;7.17;;
68763;SDS011;55754;52.038;5.566;2023-01-24T01:39:17;15.07;;;7.83;;
68763;SDS011;55754;52.038;5.566;2023-01-24T01:41:46;14.75;;;8.43;;
68763;SDS011;55754;52.038;5.566;2023-01-24T01:44:16;14.40;;;8.23;;
68763;SDS011;55754;52.038;5.566;2023-01-24T01:47:01;14.05;;;7.22;;
68763;SDS011;55754;52.038;5.566;2023-01-24T01:49:27;13.57;;;7.43;;
68763;SDS011;55754;52.038;5.566;2023-01-24T01:51:54;13.82;;;7.30;;
68763;SDS011;55754;52.038;5.566;2023-01-24T01:54:24;14.38;;;7.57;;
68763;SDS011;55754;52.038;5.566;2023-01-24T01:59:31;14.98;;;7.70;;
68763;SDS011;55754;52.038;5.566;2023-01-24T02:02:03;16.17;;;8.10;;
68763;SDS011;55754;52.038;5.566;2023-01-24T02:04:35;14.63;;;7.78;;
68763;SDS011;55754;52.038;5.566;2023-01-24T02:07:10;14.32;;;7.63;;
68763;SDS011;55754;52.038;5.566;2023-01-24T02:09:43;14.90;;;7.10;;
68763;SDS011;55754;52.038;5.566;2023-01-24T02:12:12;14.38;;;7.63;;
68763;SDS011;55754;52.038;5.566;2023-01-24T02:14:42;15.02;;;7.97;;
68763;SDS011;55754;52.038;5.566;2023-01-24T02:17:30;16.42;;;8.32;;
68763;SDS011;55754;52.038;5.566;2023-01-24T02:20:11;13.93;;;7.50;;
68763;SDS011;55754;52.038;5.566;2023-01-24T02:22:54;15.18;;;7.97;;
68763;SDS011;55754;52.038;5.566;2023-01-24T02:27:56;14.60;;;8.05;;
68763;SDS011;55754;52.038;5.566;2023-01-24T02:30:23;17.30;;;8.00;;
68763;SDS011;55754;52.038;5.566;2023-01-24T02:32:49;16.43;;;8.00;;
68763;SDS011;55754;52.038;5.566;2023-01-24T02:35:21;14.57;;;8.30;;
68763;SDS011;55754;52.038;5.566;2023-01-24T02:37:49;15.88;;;8.45;;
68763;SDS011;55754;52.038;5.566;2023-01-24T02:40:16;15.18;;;8.07;;
68763;SDS011;55754;52.038;5.566;2023-01-24T02:42:43;16.02;;;8.35;;
68763;SDS011;55754;52.038;5.566;2023-01-24T02:45:28;14.43;;;8.30;;
68763;SDS011;55754;52.038;5.566;2023-01-24T02:47:57;16.58;;;8.20;;
68763;SDS011;55754;52.038;5.566;2023-01-24T02:50:24;16.77;;;8.02;;
68763;SDS011;55754;52.038;5.566;2023-01-24T02:52:53;16.83;;;8.48;;
68763;SDS011;55754;52.038;5.566;2023-01-24T02:55:37;18.15;;;8.68;;
68763;SDS011;55754;52.038;5.566;2023-01-24T02:58:23;15.37;;;8.20;;
68763;SDS011;55754;52.038;5.566;2023-01-24T03:00:50;16.45;;;8.07;;
68763;SDS011;55754;52.038;5.566;2023-01-24T03:03:15;14.88;;;7.97;;
68763;SDS011;55754;52.038;5.566;2023-01-24T03:05:41;15.57;;;8.07;;
68763;SDS011;55754;52.038;5.566;2023-01-24T03:08:27;16.25;;;7.78;;
68763;SDS011;55754;52.038;5.566;2023-01-24T03:10:54;15.65;;;8.50;;
68763;SDS011;55754;52.038;5.566;2023-01-24T03:13:21;16.93;;;8.73;;
68763;SDS011;55754;52.038;5.566;2023-01-24T03:16:06;14.98;;;7.97;;
68763;SDS011;55754;52.038;5.566;2023-01-24T03:18:50;15.35;;;8.18;;
68763;SDS011;55754;52.038;5.566;2023-01-24T03:21:35;14.95;;;7.57;;
68763;SDS011;55754;52.038;5.566;2023-01-24T03:24:19;16.27;;;8.00;;
68763;SDS011;55754;52.038;5.566;2023-01-24T03:27:03;15.60;;;8.50;;
68763;SDS011;55754;52.038;5.566;2023-01-24T03:29:47;17.20;;;8.30;;
68763;SDS011;55754;52.038;5.566;2023-01-24T03:32:32;16.95;;;8.88;;
68763;SDS011;55754;52.038;5.566;2023-01-24T03:35:16;17.58;;;8.90;;
68763;SDS011;55754;52.038;5.566;2023-01-24T03:37:43;16.40;;;8.98;;
68763;SDS011;55754;52.038;5.566;2023-01-24T03:40:27;16.80;;;9.10;;
68763;SDS011;55754;52.038;5.566;2023-01-24T03:42:53;15.20;;;8.07;;
68763;SDS011;55754;52.038;5.566;2023-01-24T03:47:55;18.73;;;8.63;;
68763;SDS011;55754;52.038;5.566;2023-01-24T03:50:36;16.10;;;8.60;;
68763;SDS011;55754;52.038;5.566;2023-01-24T03:53:22;18.23;;;9.32;;
68763;SDS011;55754;52.038;5.566;2023-01-24T03:55:53;18.63;;;9.17;;
68763;SDS011;55754;52.038;5.566;2023-01-24T03:58:21;18.55;;;9.68;;
68763;SDS011;55754;52.038;5.566;2023-01-24T04:00:47;19.55;;;10.15;;
68763;SDS011;55754;52.038;5.566;2023-01-24T04:03:13;17.92;;;9.27;;
68763;SDS011;55754;52.038;5.566;2023-01-24T04:05:39;18.40;;;10.40;;
68763;SDS011;55754;52.038;5.566;2023-01-24T04:08:04;17.48;;;9.15;;
68763;SDS011;55754;52.038;5.566;2023-01-24T04:10:31;20.87;;;9.90;;
68763;SDS011;55754;52.038;5.566;2023-01-24T04:12:57;19.55;;;10.00;;
68763;SDS011;55754;52.038;5.566;2023-01-24T04:15:23;19.63;;;9.95;;
68763;SDS011;55754;52.038;5.566;2023-01-24T04:17:51;18.80;;;10.02;;
68763;SDS011;55754;52.038;5.566;2023-01-24T04:20:21;18.73;;;9.23;;
68763;SDS011;55754;52.038;5.566;2023-01-24T04:22:47;18.52;;;9.57;;
68763;SDS011;55754;52.038;5.566;2023-01-24T04:25:12;20.27;;;10.23;;
68763;SDS011;55754;52.038;5.566;2023-01-24T04:27:41;20.17;;;10.18;;
68763;SDS011;55754;52.038;5.566;2023-01-24T04:30:07;21.90;;;11.18;;
68763;SDS011;55754;52.038;5.566;2023-01-24T04:32:35;17.80;;;9.73;;
68763;SDS011;55754;52.038;5.566;2023-01-24T04:35:01;21.00;;;10.93;;
68763;SDS011;55754;52.038;5.566;2023-01-24T04:37:31;18.60;;;10.23;;
68763;SDS011;55754;52.038;5.566;2023-01-24T04:39:57;20.05;;;10.45;;
68763;SDS011;55754;52.038;5.566;2023-01-24T04:42:23;23.77;;;11.57;;
68763;SDS011;55754;52.038;5.566;2023-01-24T04:44:48;20.85;;;10.57;;
68763;SDS011;55754;52.038;5.566;2023-01-24T04:47:14;20.35;;;11.27;;
68763;SDS011;55754;52.038;5.566;2023-01-24T04:49:39;21.43;;;10.10;;
68763;SDS011;55754;52.038;5.566;2023-01-24T04:52:09;18.65;;;10.60;;
68763;SDS011;55754;52.038;5.566;2023-01-24T04:54:37;18.70;;;9.75;;
68763;SDS011;55754;52.038;5.566;2023-01-24T04:57:03;19.15;;;10.27;;
68763;SDS011;55754;52.038;5.566;2023-01-24T04:59:31;19.13;;;10.60;;
68763;SDS011;55754;52.038;5.566;2023-01-24T05:01:57;18.48;;;10.23;;
68763;SDS011;55754;52.038;5.566;2023-01-24T05:04:22;20.33;;;11.37;;
68763;SDS011;55754;52.038;5.566;2023-01-24T05:06:48;20.17;;;10.63;;
68763;SDS011;55754;52.038;5.566;2023-01-24T05:09:14;19.45;;;10.27;;
68763;SDS011;55754;52.038;5.566;2023-01-24T05:11:40;20.00;;;11.30;;
68763;SDS011;55754;52.038;5.566;2023-01-24T05:14:07;19.88;;;10.95;;
68763;SDS011;55754;52.038;5.566;2023-01-24T05:16:34;21.67;;;11.23;;
68763;SDS011;55754;52.038;5.566;2023-01-24T05:18:59;21.57;;;11.07;;
68763;SDS011;55754;52.038;5.566;2023-01-24T05:21:25;22.20;;;10.60;;
68763;SDS011;55754;52.038;5.566;2023-01-24T05:23:51;21.08;;;10.63;;
68763;SDS011;55754;52.038;5.566;2023-01-24T05:26:21;20.63;;;10.87;;
68763;SDS011;55754;52.038;5.566;2023-01-24T05:28:48;21.70;;;11.23;;
68763;SDS011;55754;52.038;5.566;2023-01-24T05:31:14;19.48;;;10.77;;
68763;SDS011;55754;52.038;5.566;2023-01-24T05:33:40;24.25;;;11.93;;
68763;SDS011;55754;52.038;5.566;2023-01-24T05:36:07;23.50;;;12.20;;
68763;SDS011;55754;52.038;5.566;2023-01-24T05:38:34;20.00;;;10.27;;
68763;SDS011;55754;52.038;5.566;2023-01-24T05:41:05;20.05;;;11.07;;
68763;SDS011;55754;52.038;5.566;2023-01-24T05:43:32;21.60;;;11.30;;
68763;SDS011;55754;52.038;5.566;2023-01-24T05:45:59;23.10;;;11.90;;
68763;SDS011;55754;52.038;5.566;2023-01-24T05:48:26;21.97;;;10.87;;
68763;SDS011;55754;52.038;5.566;2023-01-24T05:50:58;20.77;;;10.50;;
68763;SDS011;55754;52.038;5.566;2023-01-24T05:53:26;22.38;;;11.75;;
68763;SDS011;55754;52.038;5.566;2023-01-24T05:55:56;21.42;;;11.23;;
68763;SDS011;55754;52.038;5.566;2023-01-24T05:58:23;23.55;;;12.73;;
68763;SDS011;55754;52.038;5.566;2023-01-24T06:00:52;25.30;;;11.83;;
68763;SDS011;55754;52.038;5.566;2023-01-24T06:03:18;23.50;;;11.90;;
68763;SDS011;55754;52.038;5.566;2023-01-24T06:05:54;22.70;;;11.73;;
68763;SDS011;55754;52.038;5.566;2023-01-24T06:08:20;22.50;;;11.77;;
68763;SDS011;55754;52.038;5.566;2023-01-24T06:10:46;22.52;;;11.80;;
68763;SDS011;55754;52.038;5.566;2023-01-24T06:13:15;22.35;;;11.70;;
68763;SDS011;55754;52.038;5.566;2023-01-24T06:15:41;21.23;;;11.50;;
68763;SDS011;55754;52.038;5.566;2023-01-24T06:18:07;26.15;;;12.65;;
68763;SDS011;55754;52.038;5.566;2023-01-24T06:20:37;22.83;;;12.57;;
68763;SDS011;55754;52.038;5.566;2023-01-24T06:23:04;21.60;;;11.90;;
68763;SDS011;55754;52.038;5.566;2023-01-24T06:25:31;21.65;;;11.48;;
68763;SDS011;55754;52.038;5.566;2023-01-24T06:27:57;23.77;;;12.25;;
68763;SDS011;55754;52.038;5.566;2023-01-24T06:30:24;21.17;;;11.02;;
68763;SDS011;55754;52.038;5.566;2023-01-24T06:35:46;21.33;;;10.83;;
68763;SDS011;55754;52.038;5.566;2023-01-24T06:38:35;21.98;;;11.13;;
68763;SDS011;55754;52.038;5.566;2023-01-24T06:41:01;20.70;;;10.95;;
68763;SDS011;55754;52.038;5.566;2023-01-24T06:43:27;21.15;;;11.15;;
68763;SDS011;55754;52.038;5.566;2023-01-24T06:45:54;21.50;;;11.40;;
68763;SDS011;55754;52.038;5.566;2023-01-24T06:48:20;21.33;;;10.75;;
68763;SDS011;55754;52.038;5.566;2023-01-24T06:50:46;20.65;;;10.13;;
68763;SDS011;55754;52.038;5.566;2023-01-24T06:53:12;20.47;;;11.20;;
68763;SDS011;55754;52.038;5.566;2023-01-24T06:55:39;22.15;;;10.07;;
68763;SDS011;55754;52.038;5.566;2023-01-24T06:58:08;20.55;;;10.75;;
68763;SDS011;55754;52.038;5.566;2023-01-24T07:00:34;20.07;;;10.20;;
68763;SDS011;55754;52.038;5.566;2023-01-24T07:03:02;22.60;;;11.63;;
68763;SDS011;55754;52.038;5.566;2023-01-24T07:05:31;22.40;;;11.40;;
68763;SDS011;55754;52.038;5.566;2023-01-24T07:07:57;22.98;;;11.23;;
68763;SDS011;55754;52.038;5.566;2023-01-24T07:10:23;22.55;;;11.40;;
68763;SDS011;55754;52.038;5.566;2023-01-24T07:12:49;21.90;;;11.45;;
68763;SDS011;55754;52.038;5.566;2023-01-24T07:15:15;22.37;;;11.70;;
68763;SDS011;55754;52.038;5.566;2023-01-24T07:17:41;21.33;;;11.32;;
68763;SDS011;55754;52.038;5.566;2023-01-24T07:20:07;23.17;;;11.90;;
68763;SDS011;55754;52.038;5.566;2023-01-24T07:22:39;21.30;;;11.63;;
68763;SDS011;55754;52.038;5.566;2023-01-24T07:25:09;28.05;;;14.50;;
68763;SDS011;55754;52.038;5.566;2023-01-24T07:27:38;33.67;;;14.77;;
68763;SDS011;55754;52.038;5.566;2023-01-24T07:30:04;25.17;;;12.55;;
68763;SDS011;55754;52.038;5.566;2023-01-24T07:32:30;22.92;;;11.98;;
68763;SDS011;55754;52.038;5.566;2023-01-24T07:34:56;31.30;;;14.25;;
68763;SDS011;55754;52.038;5.566;2023-01-24T07:37:21;25.47;;;13.13;;
68763;SDS011;55754;52.038;5.566;2023-01-24T07:39:48;23.27;;;12.13;;
68763;SDS011;55754;52.038;5.566;2023-01-24T07:42:13;20.87;;;11.27;;
68763;SDS011;55754;52.038;5.566;2023-01-24T07:44:42;22.13;;;11.35;;
68763;SDS011;55754;52.038;5.566;2023-01-24T07:47:08;24.42;;;12.02;;
68763;SDS011;55754;52.038;5.566;2023-01-24T07:49:33;22.80;;;11.20;;
68763;SDS011;55754;52.038;5.566;2023-01-24T07:51:59;19.57;;;10.60;;
68763;SDS011;55754;52.038;5.566;2023-01-24T07:54:24;22.83;;;11.60;;
68763;SDS011;55754;52.038;5.566;2023-01-24T07:56:50;21.42;;;10.82;;
68763;SDS011;55754;52.038;5.566;2023-01-24T07:59:18;20.80;;;11.13;;
68763;SDS011;55754;52.038;5.566;2023-01-24T08:01:44;22.63;;;11.77;;
68763;SDS011;55754;52.038;5.566;2023-01-24T08:04:09;22.30;;;11.70;;
68763;SDS011;55754;52.038;5.566;2023-01-24T08:06:35;23.23;;;11.40;;
68763;SDS011;55754;52.038;5.566;2023-01-24T08:09:01;23.40;;;11.27;;
68763;SDS011;55754;52.038;5.566;2023-01-24T08:11:26;22.10;;;11.25;;
68763;SDS011;55754;52.038;5.566;2023-01-24T08:13:52;20.60;;;10.47;;
68763;SDS011;55754;52.038;5.566;2023-01-24T08:16:17;22.50;;;11.38;;
68763;SDS011;55754;52.038;5.566;2023-01-24T08:18:50;22.33;;;11.13;;
68763;SDS011;55754;52.038;5.566;2023-01-24T08:21:16;19.67;;;10.60;;
68763;SDS011;55754;52.038;5.566;2023-01-24T08:23:42;22.40;;;11.60;;
68763;SDS011;55754;52.038;5.566;2023-01-24T08:26:07;21.80;;;11.35;;
68763;SDS011;55754;52.038;5.566;2023-01-24T08:28:33;22.60;;;11.60;;
68763;SDS011;55754;52.038;5.566;2023-01-24T08:30:58;21.20;;;10.35;;
68763;SDS011;55754;52.038;5.566;2023-01-24T08:33:24;20.53;;;10.97;;
68763;SDS011;55754;52.038;5.566;2023-01-24T08:35:50;19.98;;;10.88;;
68763;SDS011;55754;52.038;5.566;2023-01-24T08:38:16;21.63;;;11.20;;
68763;SDS011;55754;52.038;5.566;2023-01-24T08:40:42;22.17;;;11.48;;
68763;SDS011;55754;52.038;5.566;2023-01-24T08:43:08;23.03;;;11.43;;
68763;SDS011;55754;52.038;5.566;2023-01-24T08:45:34;23.05;;;11.30;;
68763;SDS011;55754;52.038;5.566;2023-01-24T08:48:00;22.48;;;11.57;;
68763;SDS011;55754;52.038;5.566;2023-01-24T08:50:25;20.58;;;10.20;;
68763;SDS011;55754;52.038;5.566;2023-01-24T08:52:55;19.30;;;10.30;;
68763;SDS011;55754;52.038;5.566;2023-01-24T08:55:21;19.85;;;10.30;;
68763;SDS011;55754;52.038;5.566;2023-01-24T08:57:47;20.05;;;10.32;;
68763;SDS011;55754;52.038;5.566;2023-01-24T09:00:13;19.77;;;9.13;;
68763;SDS011;55754;52.038;5.566;2023-01-24T09:02:39;21.02;;;10.40;;
68763;SDS011;55754;52.038;5.566;2023-01-24T09:05:05;21.17;;;10.20;;
68763;SDS011;55754;52.038;5.566;2023-01-24T09:07:34;19.95;;;10.45;;
68763;SDS011;55754;52.038;5.566;2023-01-24T09:10:01;18.83;;;9.93;;
68763;SDS011;55754;52.038;5.566;2023-01-24T09:12:30;19.77;;;9.88;;
68763;SDS011;55754;52.038;5.566;2023-01-24T09:14:56;22.48;;;10.35;;
68763;SDS011;55754;52.038;5.566;2023-01-24T09:17:23;20.13;;;10.80;;
68763;SDS011;55754;52.038;5.566;2023-01-24T09:19:48;21.17;;;10.38;;
68763;SDS011;55754;52.038;5.566;2023-01-24T09:22:14;18.93;;;9.90;;
68763;SDS011;55754;52.038;5.566;2023-01-24T09:24:40;18.20;;;9.57;;
68763;SDS011;55754;52.038;5.566;2023-01-24T09:27:05;19.40;;;10.07;;
68763;SDS011;55754;52.038;5.566;2023-01-24T09:29:31;20.50;;;10.70;;
68763;SDS011;55754;52.038;5.566;2023-01-24T09:31:57;20.90;;;9.93;;
68763;SDS011;55754;52.038;5.566;2023-01-24T09:34:22;20.13;;;10.75;;
68763;SDS011;55754;52.038;5.566;2023-01-24T09:36:48;19.98;;;10.13;;
68763;SDS011;55754;52.038;5.566;2023-01-24T09:39:14;20.80;;;10.35;;
68763;SDS011;55754;52.038;5.566;2023-01-24T09:44:44;18.65;;;9.75;;
68763;SDS011;55754;52.038;5.566;2023-01-24T09:47:17;19.25;;;9.60;;
68763;SDS011;55754;52.038;5.566;2023-01-24T09:49:48;17.38;;;9.35;;
68763;SDS011;55754;52.038;5.566;2023-01-24T09:52:59;20.42;;;10.82;;
68763;SDS011;55754;52.038;5.566;2023-01-24T09:57:50;19.33;;;9.60;;
68763;SDS011;55754;52.038;5.566;2023-01-24T10:02:52;20.67;;;10.20;;
68763;SDS011;55754;52.038;5.566;2023-01-24T10:05:38;18.30;;;10.00;;
68763;SDS011;55754;52.038;5.566;2023-01-24T10:08:08;19.52;;;10.32;;
68763;SDS011;55754;52.038;5.566;2023-01-24T10:19:17;21.00;;;10.27;;
68763;SDS011;55754;52.038;5.566;2023-01-24T10:24:31;18.38;;;9.75;;
68763;SDS011;55754;52.038;5.566;2023-01-24T10:26:59;17.67;;;8.75;;
68763;SDS011;55754;52.038;5.566;2023-01-24T10:29:27;20.17;;;11.80;;
68763;SDS011;55754;52.038;5.566;2023-01-24T10:32:05;21.30;;;11.25;;
68763;SDS011;55754;52.038;5.566;2023-01-24T10:34:46;19.10;;;10.00;;
68763;SDS011;55754;52.038;5.566;2023-01-24T10:37:17;20.67;;;10.18;;
68763;SDS011;55754;52.038;5.566;2023-01-24T10:39:46;20.52;;;10.18;;
68763;SDS011;55754;52.038;5.566;2023-01-24T10:42:21;19.80;;;10.40;;
68763;SDS011;55754;52.038;5.566;2023-01-24T10:44:49;20.52;;;10.23;;
68763;SDS011;55754;52.038;5.566;2023-01-24T10:50:13;18.40;;;9.60;;
68763;SDS011;55754;52.038;5.566;2023-01-24T10:52:40;16.05;;;8.40;;
68763;SDS011;55754;52.038;5.566;2023-01-24T10:57:57;20.50;;;9.63;;
68763;SDS011;55754;52.038;5.566;2023-01-24T11:00:25;20.45;;;10.30;;
68763;SDS011;55754;52.038;5.566;2023-01-24T11:03:09;19.38;;;10.00;;
68763;SDS011;55754;52.038;5.566;2023-01-24T11:05:45;20.73;;;10.02;;
68763;SDS011;55754;52.038;5.566;2023-01-24T11:08:23;20.15;;;10.25;;
68763;SDS011;55754;52.038;5.566;2023-01-24T11:10:54;20.77;;;9.95;;
68763;SDS011;55754;52.038;5.566;2023-01-24T11:15:47;19.73;;;10.57;;
68763;SDS011;55754;52.038;5.566;2023-01-24T11:18:25;19.67;;;10.23;;
68763;SDS011;55754;52.038;5.566;2023-01-24T11:23:37;21.83;;;10.65;;
68763;SDS011;55754;52.038;5.566;2023-01-24T11:26:26;19.23;;;9.93;;
68763;SDS011;55754;52.038;5.566;2023-01-24T11:31:31;21.00;;;10.10;;
68763;SDS011;55754;52.038;5.566;2023-01-24T11:36:58;21.63;;;10.38;;
68763;SDS011;55754;52.038;5.566;2023-01-24T11:59:07;19.30;;;11.02;;
68763;SDS011;55754;52.038;5.566;2023-01-24T12:01:54;19.60;;;10.05;;
68763;SDS011;55754;52.038;5.566;2023-01-24T12:04:34;24.00;;;11.23;;
68763;SDS011;55754;52.038;5.566;2023-01-24T12:12:36;19.20;;;10.80;;
68763;SDS011;55754;52.038;5.566;2023-01-24T12:18:01;19.70;;;10.60;;
68763;SDS011;55754;52.038;5.566;2023-01-24T12:20:56;21.00;;;11.27;;
68763;SDS011;55754;52.038;5.566;2023-01-24T12:23:41;19.38;;;11.18;;
68763;SDS011;55754;52.038;5.566;2023-01-24T12:26:44;18.70;;;10.80;;
68763;SDS011;55754;52.038;5.566;2023-01-24T12:29:24;19.95;;;10.80;;
68763;SDS011;55754;52.038;5.566;2023-01-24T12:34:55;18.98;;;10.65;;
68763;SDS011;55754;52.038;5.566;2023-01-24T12:40:09;20.65;;;10.90;;
68763;SDS011;55754;52.038;5.566;2023-01-24T12:43:08;20.80;;;11.35;;
68763;SDS011;55754;52.038;5.566;2023-01-24T12:45:42;21.38;;;11.15;;
68763;SDS011;55754;52.038;5.566;2023-01-24T12:48:19;19.05;;;10.95;;
68763;SDS011;55754;52.038;5.566;2023-01-24T12:51:09;20.83;;;11.13;;
68763;SDS011;55754;52.038;5.566;2023-01-24T12:53:40;23.70;;;13.25;;
68763;SDS011;55754;52.038;5.566;2023-01-24T12:56:21;19.65;;;11.18;;
68763;SDS011;55754;52.038;5.566;2023-01-24T12:59:07;21.80;;;11.93;;
68763;SDS011;55754;52.038;5.566;2023-01-24T13:04:37;20.23;;;11.05;;
68763;SDS011;55754;52.038;5.566;2023-01-24T13:12:58;19.85;;;10.50;;
68763;SDS011;55754;52.038;5.566;2023-01-24T13:15:26;19.10;;;10.60;;
68763;SDS011;55754;52.038;5.566;2023-01-24T13:17:59;20.00;;;11.02;;
68763;SDS011;55754;52.038;5.566;2023-01-24T13:31:55;19.45;;;10.50;;
68763;SDS011;55754;52.038;5.566;2023-01-24T13:34:31;20.05;;;10.23;;
68763;SDS011;55754;52.038;5.566;2023-01-24T13:37:00;19.15;;;10.45;;
68763;SDS011;55754;52.038;5.566;2023-01-24T13:39:29;18.80;;;10.30;;
68763;SDS011;55754;52.038;5.566;2023-01-24T13:44:47;14.98;;;8.73;;
68763;SDS011;55754;52.038;5.566;2023-01-24T13:49:45;17.45;;;10.45;;
68763;SDS011;55754;52.038;5.566;2023-01-24T13:52:35;18.85;;;9.95;;
68763;SDS011;55754;52.038;5.566;2023-01-24T13:55:04;15.90;;;9.43;;
68763;SDS011;55754;52.038;5.566;2023-01-24T14:00:32;18.95;;;10.23;;
68763;SDS011;55754;52.038;5.566;2023-01-24T14:03:14;18.08;;;9.82;;
68763;SDS011;55754;52.038;5.566;2023-01-24T14:10:51;18.05;;;10.23;;
68763;SDS011;55754;52.038;5.566;2023-01-24T14:16:10;18.20;;;10.33;;
68763;SDS011;55754;52.038;5.566;2023-01-24T14:19:04;18.20;;;9.77;;
68763;SDS011;55754;52.038;5.566;2023-01-24T14:21:47;18.83;;;9.90;;
68763;SDS011;55754;52.038;5.566;2023-01-24T14:27:18;19.25;;;10.43;;
68763;SDS011;55754;52.038;5.566;2023-01-24T14:29:48;16.97;;;9.70;;
68763;SDS011;55754;52.038;5.566;2023-01-24T14:32:25;15.82;;;9.18;;
68763;SDS011;55754;52.038;5.566;2023-01-24T14:37:41;16.55;;;9.27;;
68763;SDS011;55754;52.038;5.566;2023-01-24T14:40:25;17.13;;;9.45;;
68763;SDS011;55754;52.038;5.566;2023-01-24T14:43:02;16.92;;;9.40;;
68763;SDS011;55754;52.038;5.566;2023-01-24T14:45:31;16.98;;;9.48;;
68763;SDS011;55754;52.038;5.566;2023-01-24T14:47:58;19.20;;;9.50;;
68763;SDS011;55754;52.038;5.566;2023-01-24T14:50:29;16.05;;;9.75;;
68763;SDS011;55754;52.038;5.566;2023-01-24T14:52:58;18.13;;;9.80;;
68763;SDS011;55754;52.038;5.566;2023-01-24T14:55:37;16.70;;;9.02;;
68763;SDS011;55754;52.038;5.566;2023-01-24T14:58:12;16.15;;;9.60;;
68763;SDS011;55754;52.038;5.566;2023-01-24T15:00:46;16.77;;;9.65;;
68763;SDS011;55754;52.038;5.566;2023-01-24T15:03:14;19.10;;;9.82;;
68763;SDS011;55754;52.038;5.566;2023-01-24T15:05:48;20.23;;;9.52;;
68763;SDS011;55754;52.038;5.566;2023-01-24T15:08:15;16.58;;;9.23;;
68763;SDS011;55754;52.038;5.566;2023-01-24T15:10:44;16.63;;;9.70;;
68763;SDS011;55754;52.038;5.566;2023-01-24T15:13:26;17.60;;;10.30;;
68763;SDS011;55754;52.038;5.566;2023-01-24T15:15:55;19.92;;;9.68;;
68763;SDS011;55754;52.038;5.566;2023-01-24T15:21:01;16.25;;;9.10;;
68763;SDS011;55754;52.038;5.566;2023-01-24T15:23:28;15.98;;;8.55;;
68763;SDS011;55754;52.038;5.566;2023-01-24T15:25:56;16.63;;;8.65;;
68763;SDS011;55754;52.038;5.566;2023-01-24T15:30:54;17.33;;;9.48;;
68763;SDS011;55754;52.038;5.566;2023-01-24T15:33:39;16.30;;;9.40;;
68763;SDS011;55754;52.038;5.566;2023-01-24T15:36:29;17.60;;;9.75;;
68763;SDS011;55754;52.038;5.566;2023-01-24T15:38:57;15.93;;;9.25;;
68763;SDS011;55754;52.038;5.566;2023-01-24T15:41:24;16.13;;;9.17;;
68763;SDS011;55754;52.038;5.566;2023-01-24T15:44:26;17.35;;;9.18;;
68763;SDS011;55754;52.038;5.566;2023-01-24T15:46:53;16.00;;;9.15;;
68763;SDS011;55754;52.038;5.566;2023-01-24T15:49:39;15.87;;;8.87;;
68763;SDS011;55754;52.038;5.566;2023-01-24T15:52:20;17.63;;;9.30;;
68763;SDS011;55754;52.038;5.566;2023-01-24T15:54:53;14.77;;;8.68;;
68763;SDS011;55754;52.038;5.566;2023-01-24T16:00:01;16.35;;;8.93;;
68763;SDS011;55754;52.038;5.566;2023-01-24T16:02:35;16.90;;;9.13;;
68763;SDS011;55754;52.038;5.566;2023-01-24T16:05:01;17.73;;;9.43;;
68763;SDS011;55754;52.038;5.566;2023-01-24T16:07:37;15.85;;;9.18;;
68763;SDS011;55754;52.038;5.566;2023-01-24T16:10:02;18.40;;;9.93;;
68763;SDS011;55754;52.038;5.566;2023-01-24T16:12:28;16.02;;;9.20;;
68763;SDS011;55754;52.038;5.566;2023-01-24T16:15:03;17.10;;;10.43;;
68763;SDS011;55754;52.038;5.566;2023-01-24T16:17:29;16.50;;;9.80;;
68763;SDS011;55754;52.038;5.566;2023-01-24T16:19:54;18.30;;;9.10;;
68763;SDS011;55754;52.038;5.566;2023-01-24T16:22:20;16.73;;;9.87;;
68763;SDS011;55754;52.038;5.566;2023-01-24T16:24:45;15.73;;;8.75;;
68763;SDS011;55754;52.038;5.566;2023-01-24T16:27:11;17.97;;;9.63;;
68763;SDS011;55754;52.038;5.566;2023-01-24T16:29:38;16.50;;;9.48;;
68763;SDS011;55754;52.038;5.566;2023-01-24T16:32:25;17.65;;;9.43;;
68763;SDS011;55754;52.038;5.566;2023-01-24T16:34:51;16.10;;;9.40;;
68763;SDS011;55754;52.038;5.566;2023-01-24T16:37:17;18.93;;;9.10;;
68763;SDS011;55754;52.038;5.566;2023-01-24T16:39:44;15.15;;;8.77;;
68763;SDS011;55754;52.038;5.566;2023-01-24T16:42:16;16.40;;;9.70;;
68763;SDS011;55754;52.038;5.566;2023-01-24T16:44:44;15.97;;;9.00;;
68763;SDS011;55754;52.038;5.566;2023-01-24T16:47:20;16.52;;;9.55;;
68763;SDS011;55754;52.038;5.566;2023-01-24T16:49:50;16.20;;;9.43;;
68763;SDS011;55754;52.038;5.566;2023-01-24T16:52:20;18.88;;;9.68;;
68763;SDS011;55754;52.038;5.566;2023-01-24T16:54:47;17.43;;;10.13;;
68763;SDS011;55754;52.038;5.566;2023-01-24T16:57:13;15.25;;;8.95;;